Etusivu
METAR-TAF:

METAR-TAF

Lentoasemat :

Eastern Oregon Regional Airport at Pendleton

Pendleton, Oregon, Yhdysvallat

Leveyspiiri: 45-41-54N, Pituuspiiri: 118-50-03W, korkeus merenpinnasta: 455 m

Tämänhetkinen sää

Tämä raportti tehtiin 54 minuuttia sitten, kello 05.53 UTC
Tuuli 7 kn etelästä
Lämpötila 5°C
Kosteus 65%
Ilmanpaine 1022 hPa
Näkyvyys: 16.1 km
selkeää

METAR: KPDT 010553Z AUTO 17007KT 10SM CLR 05/M01 A3017 RMK AO2 SLP218 T00501006 10128 20050 56011

Aika: 22:47 (06:47 UTC)

Sääennuste

Tämä raportti tehtiin 1 tunti ja 27 minuuttia sitten, kello 05.20 UTC
Ennuste voimassa 01. päivästä klo 06 UTC - 02. päivään klo 06 UTC
Tuuli 6 kn etelästä
Näkyvyys: 10 km
Hajanaisia pilviä 25000 ft:n korkeudessa

TAF: KPDT 010520Z 0106/0206 18006KT P6SM SCT250

Säähavainnot ja -ennusteet yli 4000 lentoasemalta (METAR- ja TAF-raportit).

Käytössä olevat sääasemat on merkitty karttaan keltaisilla ja punaisilla pisteillä.

Aseta hiiri pisteen päälle nähdäksesi sääaseman nimen.

Klikkaa sitten nähdäksesi säähavainnot ja -ennusteet.

Kartan vaihtaminen: klikkaa mustalla rastilla varustettuja vihreitä pisteitä, niin voit zoomata sisään; viivalla varustettua vihreää pistettä, niin voit zoomata ulos tai vihreitä nuolia, niin pääset viereisille kartoille.


METAR-TAF: